CheckWX is a tool to help pilots better visualize weather data.  It is not intended as a substitute for an official pre-flight weather briefing.

22:08:18 UTC

FWCL TAF
Chileka International Airport
Blantyre, Malawi
TAF FWCL 201500Z 2018/2124 06008KT CAVOK BECMG 2106/2108 08009KT 9999 FEW025 BECMG 2110/2114 02013KT 9999 FEW030CB SCT035 BECMG 2114/2118 04012KT CAVOK

Oct-20@
18:00 UTC

Oct-20 @ 18:00 UTC

Oct-21@
06:00 UTC

Oct-21 @ 06:00 UTC

TAF FWCL 201500Z 2018/2124 06008KT CAVOK
Wind
  • 060° at 8 KTS
Conditions
No significant weather
Cloud Levels
  • No significant clouds

Oct-21@
06:00 UTC

Oct-21 @ 06:00 UTC

Oct-21@
10:00 UTC

Oct-21 @ 10:00 UTC

BECMG 2106/2108 08009KT 9999 FEW025

Becoming

Becoming Conditions expected by Mon, Oct 21, 2019 @ 08:00 UTC

Wind
  • 080° at 9 KTS
Conditions
No significant weather
Cloud Levels
  • Few at 2,500' AGL

Oct-21@
10:00 UTC

Oct-21 @ 10:00 UTC

Oct-21@
14:00 UTC

Oct-21 @ 14:00 UTC

BECMG 2110/2114 02013KT 9999 FEW030CB SCT035

Becoming

Becoming Conditions expected by Mon, Oct 21, 2019 @ 14:00 UTC

Wind
  • 020° at 13 KTS
Conditions
No significant weather
Cloud Levels
  • Few at 3,000' AGL
  • Scattered at 3,500' AGL

Oct-21@
14:00 UTC

Oct-21 @ 14:00 UTC

Oct-22@
00:00 UTC

Oct-22 @ 00:00 UTC

BECMG 2114/2118 04012KT CAVOK

Becoming

Becoming Conditions expected by Mon, Oct 21, 2019 @ 18:00 UTC

Wind
  • 040° at 12 KTS
Conditions
No significant weather
Cloud Levels
  • No significant clouds